<?xml version='1.0' encoding='UTF-8'?><gpx version="1.1" creator="JPX - https://github.com/jenetics/jpx" xmlns="http://www.topografix.com/GPX/1/1"><trk><trkseg><trkpt lat="45.59458651562994" lon="10.134540746353567"><ele>163.99999999999997</ele><time>2026-04-21T15:40:34.001Z</time></trkpt><trkpt lat="45.59453664246847" lon="10.134462264729173"><ele>164.0</ele><time>2026-04-21T15:40:48.001Z</time></trkpt><trkpt lat="45.594548325891004" lon="10.13435894725366"><ele>164.0</ele><time>2026-04-21T15:40:52.001Z</time></trkpt><trkpt lat="45.59457044484967" lon="10.134272054276748"><ele>164.0</ele><time>2026-04-21T15:40:55.001Z</time></trkpt><trkpt lat="45.59458580713703" lon="10.134174896712873"><ele>164.0</ele><time>2026-04-21T15:40:59.001Z</time></trkpt><trkpt lat="45.594596125562596" lon="10.134068539899257"><ele>163.99999999999997</ele><time>2026-04-21T15:41:02.001Z</time></trkpt><trkpt lat="45.59461515732444" lon="10.133944249802656"><ele>164.0</ele><time>2026-04-21T15:41:05.001Z</time></trkpt><trkpt lat="45.59464568824803" lon="10.133840957669069"><ele>163.99999999999997</ele><time>2026-04-21T15:41:08.001Z</time></trkpt><trkpt lat="45.59466292300488" lon="10.133745680721344"><ele>164.0</ele><time>2026-04-21T15:41:11.001Z</time></trkpt><trkpt lat="45.5946769648194" lon="10.133646005772134"><ele>164.0</ele><time>2026-04-21T15:41:14.001Z</time></trkpt><trkpt lat="45.59468318755076" lon="10.133544888978955"><ele>164.0</ele><time>2026-04-21T15:41:17.001Z</time></trkpt><trkpt lat="45.5946884758966" lon="10.133446785121402"><ele>164.0</ele><time>2026-04-21T15:41:20.001Z</time></trkpt><trkpt lat="45.59469925164849" lon="10.133343299394332"><ele>163.99999999999997</ele><time>2026-04-21T15:41:23.001Z</time></trkpt><trkpt lat="45.59470703513929" lon="10.133249327482423"><ele>164.0</ele><time>2026-04-21T15:41:26.001Z</time></trkpt><trkpt lat="45.59472690189423" lon="10.13315328359493"><ele>163.57142857142856</ele><time>2026-04-21T15:41:29.001Z</time></trkpt><trkpt lat="45.59473744769238" lon="10.133047837405961"><ele>163.14285714285714</ele><time>2026-04-21T15:41:32.001Z</time></trkpt><trkpt lat="45.59475997112667" lon="10.132951874149079"><ele>162.71428571428572</ele><time>2026-04-21T15:41:35.001Z</time></trkpt><trkpt lat="45.594785285564605" lon="10.132861181662557"><ele>162.28571428571428</ele><time>2026-04-21T15:41:38.001Z</time></trkpt><trkpt lat="45.594799649879505" lon="10.132759712459174"><ele>161.85714285714286</ele><time>2026-04-21T15:41:41.001Z</time></trkpt><trkpt lat="45.59481887592912" lon="10.13266386460755"><ele>161.42857142857142</ele><time>2026-04-21T15:41:44.001Z</time></trkpt><trkpt lat="45.59484060084319" lon="10.132568902353837"><ele>161.0</ele><time>2026-04-21T15:41:47.001Z</time></trkpt><trkpt lat="45.59484880223875" lon="10.132466614233335"><ele>160.83333333333331</ele><time>2026-04-21T15:41:50.001Z</time></trkpt><trkpt lat="45.59487444523249" lon="10.132368785808874"><ele>160.66666666666666</ele><time>2026-04-21T15:41:53.001Z</time></trkpt><trkpt lat="45.59488964475723" lon="10.132276242211"><ele>160.5</ele><time>2026-04-21T15:41:56.001Z</time></trkpt><trkpt lat="45.594909964809176" lon="10.132165570331972"><ele>160.33333333333334</ele><time>2026-04-21T15:42:01.001Z</time></trkpt><trkpt lat="45.59493865916126" lon="10.132064871622244"><ele>160.16666666666669</ele><time>2026-04-21T15:42:05.001Z</time></trkpt><trkpt lat="45.59497221487142" lon="10.13196390717649"><ele>160.0</ele><time>2026-04-21T15:42:08.001Z</time></trkpt><trkpt lat="45.594979287982156" lon="10.131852949388975"><ele>160.0</ele><time>2026-04-21T15:42:11.001Z</time></trkpt><trkpt lat="45.59499707074923" lon="10.131750173357544"><ele>160.0</ele><time>2026-04-21T15:42:14.001Z</time></trkpt><trkpt lat="45.59505567422557" lon="10.131689640379982"><ele>160.0</ele><time>2026-04-21T15:42:17.001Z</time></trkpt><trkpt lat="45.59511618755669" lon="10.13165156868711"><ele>160.0</ele><time>2026-04-21T15:42:20.001Z</time></trkpt><trkpt lat="45.595184164299184" lon="10.13164478115743"><ele>160.0</ele><time>2026-04-21T15:42:23.001Z</time></trkpt><trkpt lat="45.59525051191816" lon="10.131634117217091"><ele>160.0</ele><time>2026-04-21T15:42:26.001Z</time></trkpt><trkpt lat="45.59531407878691" lon="10.13165398812876"><ele>160.0</ele><time>2026-04-21T15:42:29.001Z</time></trkpt><trkpt lat="45.59538136673223" lon="10.131670201949266"><ele>160.71428571428572</ele><time>2026-04-21T15:42:32.001Z</time></trkpt><trkpt lat="45.59544892598919" lon="10.131657905002992"><ele>161.42857142857144</ele><time>2026-04-21T15:42:35.001Z</time></trkpt><trkpt lat="45.59551348176258" lon="10.131640117930914"><ele>162.14285714285717</ele><time>2026-04-21T15:42:38.001Z</time></trkpt><trkpt lat="45.59558339639815" lon="10.13160833540067"><ele>162.85714285714286</ele><time>2026-04-21T15:42:41.001Z</time></trkpt><trkpt lat="45.59565162765807" lon="10.131597046437227"><ele>163.57142857142858</ele><time>2026-04-21T15:42:44.001Z</time></trkpt><trkpt lat="45.595712435086746" lon="10.131656021108322"><ele>164.2857142857143</ele><time>2026-04-21T15:42:47.001Z</time></trkpt><trkpt lat="45.595769262134965" lon="10.131721712664127"><ele>165.0</ele><time>2026-04-21T15:42:50.001Z</time></trkpt><trkpt lat="45.59583530009187" lon="10.131779746060008"><ele>165.0</ele><time>2026-04-21T15:42:53.001Z</time></trkpt><trkpt lat="45.59590007310895" lon="10.131827854612984"><ele>165.0</ele><time>2026-04-21T15:42:56.001Z</time></trkpt><trkpt lat="45.59596462013971" lon="10.131884177099542"><ele>165.0</ele><time>2026-04-21T15:42:59.001Z</time></trkpt><trkpt lat="45.59602057196872" lon="10.131936673753552"><ele>165.0</ele><time>2026-04-21T15:43:02.001Z</time></trkpt><trkpt lat="45.59607693120443" lon="10.131996013198082"><ele>165.0</ele><time>2026-04-21T15:43:05.001Z</time></trkpt><trkpt lat="45.59614768570841" lon="10.132052804505184"><ele>165.0</ele><time>2026-04-21T15:43:08.001Z</time></trkpt><trkpt lat="45.59621492643714" lon="10.13212236108297"><ele>165.4</ele><time>2026-04-21T15:43:11.001Z</time></trkpt><trkpt lat="45.59640556803662" lon="10.132152672202766"><ele>165.8</ele><time>2026-04-21T15:43:18.001Z</time></trkpt><trkpt lat="45.59646233584149" lon="10.132088787726971"><ele>166.2</ele><time>2026-04-21T15:43:21.001Z</time></trkpt><trkpt lat="45.59651939184649" lon="10.132006720035136"><ele>166.6</ele><time>2026-04-21T15:43:24.001Z</time></trkpt><trkpt lat="45.59656293831321" lon="10.131920055683832"><ele>167.0</ele><time>2026-04-21T15:43:27.001Z</time></trkpt><trkpt lat="45.59660921122522" lon="10.131845412397237"><ele>167.0</ele><time>2026-04-21T15:43:30.001Z</time></trkpt><trkpt lat="45.59665111694652" lon="10.131759972836909"><ele>167.0</ele><time>2026-04-21T15:43:33.001Z</time></trkpt><trkpt lat="45.59668136413384" lon="10.131653438529524"><ele>167.0</ele><time>2026-04-21T15:43:36.001Z</time></trkpt><trkpt lat="45.59670349953509" lon="10.131544793973578"><ele>167.0</ele><time>2026-04-21T15:43:39.001Z</time></trkpt><trkpt lat="45.59673651651602" lon="10.131451251329997"><ele>167.0</ele><time>2026-04-21T15:43:42.001Z</time></trkpt><trkpt lat="45.596766056442306" lon="10.131356879436073"><ele>167.0</ele><time>2026-04-21T15:43:45.001Z</time></trkpt><trkpt lat="45.59678328888228" lon="10.131254986073516"><ele>166.57142857142856</ele><time>2026-04-21T15:43:48.001Z</time></trkpt><trkpt lat="45.59679399145637" lon="10.131149009122923"><ele>166.14285714285714</ele><time>2026-04-21T15:43:51.001Z</time></trkpt><trkpt lat="45.59680150318739" lon="10.131046782836442"><ele>165.71428571428572</ele><time>2026-04-21T15:43:54.001Z</time></trkpt><trkpt lat="45.596808715384185" lon="10.130935953995243"><ele>165.28571428571428</ele><time>2026-04-21T15:43:57.001Z</time></trkpt><trkpt lat="45.59681043035947" lon="10.130827462780603"><ele>164.85714285714286</ele><time>2026-04-21T15:44:00.001Z</time></trkpt><trkpt lat="45.59681075560617" lon="10.130722329843186"><ele>164.42857142857142</ele><time>2026-04-21T15:44:03.001Z</time></trkpt><trkpt lat="45.596805510286345" lon="10.130616679137892"><ele>164.0</ele><time>2026-04-21T15:44:06.001Z</time></trkpt><trkpt lat="45.59680337309644" lon="10.130511681769338"><ele>163.85714285714283</ele><time>2026-04-21T15:44:09.001Z</time></trkpt><trkpt lat="45.59680571755244" lon="10.130411332315278"><ele>163.71428571428572</ele><time>2026-04-21T15:44:12.001Z</time></trkpt><trkpt lat="45.596802845573585" lon="10.130305428100648"><ele>163.57142857142856</ele><time>2026-04-21T15:44:15.002Z</time></trkpt><trkpt lat="45.59680384248311" lon="10.130195479831267"><ele>163.42857142857142</ele><time>2026-04-21T15:44:18.002Z</time></trkpt><trkpt lat="45.5968098916084" lon="10.130090300100314"><ele>163.28571428571428</ele><time>2026-04-21T15:44:21.002Z</time></trkpt><trkpt lat="45.5968186385451" lon="10.129980296520941"><ele>163.14285714285714</ele><time>2026-04-21T15:44:24.002Z</time></trkpt><trkpt lat="45.59683746488411" lon="10.12988485561267"><ele>163.0</ele><time>2026-04-21T15:44:27.002Z</time></trkpt><trkpt lat="45.59683663935748" lon="10.129775897261652"><ele>163.0</ele><time>2026-04-21T15:44:30.002Z</time></trkpt><trkpt lat="45.59683572689925" lon="10.129660860625501"><ele>163.0</ele><time>2026-04-21T15:44:33.002Z</time></trkpt><trkpt lat="45.59681895312086" lon="10.129558120236533"><ele>163.0</ele><time>2026-04-21T15:44:35.002Z</time></trkpt><trkpt lat="45.596815848974906" lon="10.129441497673003"><ele>163.0</ele><time>2026-04-21T15:44:41.002Z</time></trkpt><trkpt lat="45.5968080975931" lon="10.129320239385974"><ele>163.0</ele><time>2026-04-21T15:44:44.002Z</time></trkpt><trkpt lat="45.59678130537239" lon="10.129208866307874"><ele>163.0</ele><time>2026-04-21T15:44:47.002Z</time></trkpt><trkpt lat="45.59675313081217" lon="10.12910928003557"><ele>162.66666666666669</ele><time>2026-04-21T15:44:50.002Z</time></trkpt><trkpt lat="45.596705845388996" lon="10.129020929421937"><ele>162.33333333333334</ele><time>2026-04-21T15:44:53.002Z</time></trkpt><trkpt lat="45.59668382671083" lon="10.128914818042334"><ele>162.0</ele><time>2026-04-21T15:44:56.002Z</time></trkpt><trkpt lat="45.59666894697457" lon="10.12881710219028"><ele>161.66666666666666</ele><time>2026-04-21T15:44:59.002Z</time></trkpt><trkpt lat="45.59665121894612" lon="10.12871020714537"><ele>161.33333333333331</ele><time>2026-04-21T15:45:02.002Z</time></trkpt><trkpt lat="45.59663391820491" lon="10.128604143006214"><ele>161.0</ele><time>2026-04-21T15:45:05.002Z</time></trkpt><trkpt lat="45.59661511450854" lon="10.128500512049365"><ele>161.0</ele><time>2026-04-21T15:45:08.002Z</time></trkpt><trkpt lat="45.59660042874864" lon="10.12839084033156"><ele>161.0</ele><time>2026-04-21T15:45:11.002Z</time></trkpt><trkpt lat="45.59658711187455" lon="10.128292374945788"><ele>161.0</ele><time>2026-04-21T15:45:14.002Z</time></trkpt><trkpt lat="45.59657217151719" lon="10.128190727972243"><ele>161.0</ele><time>2026-04-21T15:45:17.002Z</time></trkpt><trkpt lat="45.596553757038585" lon="10.128091695577012"><ele>161.0</ele><time>2026-04-21T15:45:20.002Z</time></trkpt><trkpt lat="45.59653686670056" lon="10.127983833936312"><ele>161.0</ele><time>2026-04-21T15:45:23.002Z</time></trkpt><trkpt lat="45.59653627587934" lon="10.127889681325419"><ele>161.0</ele><time>2026-04-21T15:45:26.002Z</time></trkpt><trkpt lat="45.596527561215744" lon="10.127772191711696"><ele>161.28571428571428</ele><time>2026-04-21T15:45:30.002Z</time></trkpt><trkpt lat="45.59651581382115" lon="10.127668783961584"><ele>161.57142857142856</ele><time>2026-04-21T15:45:33.002Z</time></trkpt><trkpt lat="45.596513735677256" lon="10.127564775696142"><ele>161.85714285714286</ele><time>2026-04-21T15:45:36.002Z</time></trkpt><trkpt lat="45.59650477831925" lon="10.12745534641571"><ele>162.14285714285714</ele><time>2026-04-21T15:45:39.002Z</time></trkpt><trkpt lat="45.596499874763964" lon="10.1273460610271"><ele>162.42857142857142</ele><time>2026-04-21T15:45:42.002Z</time></trkpt><trkpt lat="45.59649927957861" lon="10.127240609181886"><ele>162.71428571428572</ele><time>2026-04-21T15:45:45.002Z</time></trkpt><trkpt lat="45.596501179248094" lon="10.127141172133266"><ele>163.0</ele><time>2026-04-21T15:45:48.002Z</time></trkpt><trkpt lat="45.59650500885043" lon="10.127042896041361"><ele>163.2857142857143</ele><time>2026-04-21T15:45:51.002Z</time></trkpt><trkpt lat="45.59651137262335" lon="10.12694234891628"><ele>163.57142857142856</ele><time>2026-04-21T15:45:55.002Z</time></trkpt><trkpt lat="45.59652260587184" lon="10.126844426734504"><ele>163.85714285714286</ele><time>2026-04-21T15:46:00.002Z</time></trkpt><trkpt lat="45.596545948422296" lon="10.126753725993934"><ele>164.14285714285717</ele><time>2026-04-21T15:46:03.002Z</time></trkpt><trkpt lat="45.59656670764288" lon="10.1266568788185"><ele>164.42857142857144</ele><time>2026-04-21T15:46:06.002Z</time></trkpt><trkpt lat="45.59658976843452" lon="10.126552843216352"><ele>164.71428571428572</ele><time>2026-04-21T15:46:09.002Z</time></trkpt><trkpt lat="45.59658254026119" lon="10.126432135230074"><ele>165.0</ele><time>2026-04-21T15:46:12.002Z</time></trkpt><trkpt lat="45.59657940469834" lon="10.126330021886357"><ele>165.42857142857144</ele><time>2026-04-21T15:46:15.002Z</time></trkpt><trkpt lat="45.5965765206027" lon="10.126226416119756"><ele>165.85714285714286</ele><time>2026-04-21T15:46:18.002Z</time></trkpt><trkpt lat="45.596577604372456" lon="10.126120863848195"><ele>166.28571428571428</ele><time>2026-04-21T15:46:21.002Z</time></trkpt><trkpt lat="45.596579937251" lon="10.12601678028001"><ele>166.71428571428572</ele><time>2026-04-21T15:46:24.002Z</time></trkpt><trkpt lat="45.59657176928204" lon="10.12590871986836"><ele>167.14285714285714</ele><time>2026-04-21T15:46:27.002Z</time></trkpt><trkpt lat="45.59657836652765" lon="10.125792358240194"><ele>167.57142857142858</ele><time>2026-04-21T15:46:31.002Z</time></trkpt><trkpt lat="45.59657179011373" lon="10.125697942362445"><ele>168.0</ele><time>2026-04-21T15:46:33.002Z</time></trkpt><trkpt lat="45.59656791998664" lon="10.125570918685359"><ele>168.0</ele><time>2026-04-21T15:46:36.002Z</time></trkpt><trkpt lat="45.59656887777794" lon="10.125461604736106"><ele>168.0</ele><time>2026-04-21T15:46:39.002Z</time></trkpt><trkpt lat="45.59657950409028" lon="10.125355543716285"><ele>168.0</ele><time>2026-04-21T15:46:42.002Z</time></trkpt><trkpt lat="45.596575607091026" lon="10.12524985211873"><ele>168.0</ele><time>2026-04-21T15:46:45.002Z</time></trkpt><trkpt lat="45.59657768097911" lon="10.125154260129108"><ele>168.0</ele><time>2026-04-21T15:46:48.002Z</time></trkpt><trkpt lat="45.5966269078799" lon="10.125080817168696"><ele>168.0</ele><time>2026-04-21T15:46:51.002Z</time></trkpt><trkpt lat="45.59666513703259" lon="10.124993775099536"><ele>168.0</ele><time>2026-04-21T15:46:54.002Z</time></trkpt><trkpt lat="45.596697384870176" lon="10.124886814494351"><ele>168.0</ele><time>2026-04-21T15:46:58.002Z</time></trkpt><trkpt lat="45.596687105411675" lon="10.12478586315574"><ele>168.0</ele><time>2026-04-21T15:47:01.002Z</time></trkpt><trkpt lat="45.59667838656569" lon="10.124645444716458"><ele>168.0</ele><time>2026-04-21T15:47:07.002Z</time></trkpt><trkpt lat="45.59667333627551" lon="10.124529096052388"><ele>168.0</ele><time>2026-04-21T15:47:10.002Z</time></trkpt><trkpt lat="45.59666665026831" lon="10.124421786307776"><ele>168.0</ele><time>2026-04-21T15:47:13.002Z</time></trkpt><trkpt lat="45.59664958467276" lon="10.12431664016217"><ele>168.0</ele><time>2026-04-21T15:47:16.002Z</time></trkpt><trkpt lat="45.59664469373464" lon="10.124214834955465"><ele>168.0</ele><time>2026-04-21T15:47:19.002Z</time></trkpt><trkpt lat="45.596597983858025" lon="10.124138963667255"><ele>168.0</ele><time>2026-04-21T15:47:22.002Z</time></trkpt><trkpt lat="45.59657195228624" lon="10.124007397725652"><ele>168.0</ele><time>2026-04-21T15:47:26.002Z</time></trkpt><trkpt lat="45.59656741438552" lon="10.123912563775246"><ele>168.0</ele><time>2026-04-21T15:47:29.002Z</time></trkpt><trkpt lat="45.59657604538805" lon="10.123787381985998"><ele>168.0</ele><time>2026-04-21T15:47:32.002Z</time></trkpt><trkpt lat="45.59660391223466" lon="10.123678789151498"><ele>168.0</ele><time>2026-04-21T15:47:34.002Z</time></trkpt><trkpt lat="45.59660840392425" lon="10.123587559955855"><ele>168.0</ele><time>2026-04-21T15:47:36.002Z</time></trkpt><trkpt lat="45.59660368310875" lon="10.123462775919263"><ele>168.0</ele><time>2026-04-21T15:47:39.002Z</time></trkpt><trkpt lat="45.59659346998155" lon="10.123356980305157"><ele>168.0</ele><time>2026-04-21T15:47:42.002Z</time></trkpt><trkpt lat="45.596583379939624" lon="10.123249865601089"><ele>168.0</ele><time>2026-04-21T15:47:45.002Z</time></trkpt><trkpt lat="45.59659925766832" lon="10.1231507881411"><ele>168.0</ele><time>2026-04-21T15:47:48.002Z</time></trkpt><trkpt lat="45.59660528558912" lon="10.123047836273795"><ele>168.0</ele><time>2026-04-21T15:47:51.002Z</time></trkpt><trkpt lat="45.59659986122502" lon="10.122942717044396"><ele>167.66666666666666</ele><time>2026-04-21T15:47:54.002Z</time></trkpt><trkpt lat="45.59656867904937" lon="10.122847820974506"><ele>167.33333333333334</ele><time>2026-04-21T15:47:57.002Z</time></trkpt><trkpt lat="45.59658219956219" lon="10.122730300121157"><ele>167.0</ele><time>2026-04-21T15:48:00.002Z</time></trkpt><trkpt lat="45.59659975910988" lon="10.12263433374714"><ele>166.66666666666669</ele><time>2026-04-21T15:48:03.002Z</time></trkpt><trkpt lat="45.59659903042778" lon="10.122521294131113"><ele>166.33333333333334</ele><time>2026-04-21T15:48:06.003Z</time></trkpt><trkpt lat="45.596610074984184" lon="10.122419159423146"><ele>166.0</ele><time>2026-04-21T15:48:09.003Z</time></trkpt><trkpt lat="45.596615512718536" lon="10.122307613710685"><ele>165.83333333333334</ele><time>2026-04-21T15:48:12.003Z</time></trkpt><trkpt lat="45.59663331890017" lon="10.122184970203561"><ele>165.66666666666669</ele><time>2026-04-21T15:48:15.003Z</time></trkpt><trkpt lat="45.59664755078645" lon="10.122069188205673"><ele>165.5</ele><time>2026-04-21T15:48:18.003Z</time></trkpt><trkpt lat="45.596676914306464" lon="10.121964165705784"><ele>165.33333333333334</ele><time>2026-04-21T15:48:21.003Z</time></trkpt><trkpt lat="45.596707527533276" lon="10.121885506037238"><ele>165.16666666666666</ele><time>2026-04-21T15:48:24.003Z</time></trkpt><trkpt lat="45.5967442381" lon="10.121784172461226"><ele>165.0</ele><time>2026-04-21T15:48:28.003Z</time></trkpt><trkpt lat="45.59677189364732" lon="10.121678774879959"><ele>165.00000000000003</ele><time>2026-04-21T15:48:31.003Z</time></trkpt><trkpt lat="45.59679033581122" lon="10.121578565286752"><ele>165.0</ele><time>2026-04-21T15:48:34.003Z</time></trkpt><trkpt lat="45.59679016707176" lon="10.12147634172774"><ele>165.0</ele><time>2026-04-21T15:48:37.003Z</time></trkpt><trkpt lat="45.59677923340588" lon="10.121382525677305"><ele>165.0</ele><time>2026-04-21T15:48:40.003Z</time></trkpt><trkpt lat="45.59676917965612" lon="10.121280112690773"><ele>165.0</ele><time>2026-04-21T15:48:43.003Z</time></trkpt><trkpt lat="45.596774170454175" lon="10.12117618018477"><ele>165.00000000000003</ele><time>2026-04-21T15:48:46.003Z</time></trkpt><trkpt lat="45.596802446113806" lon="10.1210612393781"><ele>165.0</ele><time>2026-04-21T15:48:49.003Z</time></trkpt><trkpt lat="45.596806954325274" lon="10.12096035523099"><ele>165.00000000000003</ele><time>2026-04-21T15:48:52.003Z</time></trkpt><trkpt lat="45.59681923128991" lon="10.120863866234295"><ele>165.0</ele><time>2026-04-21T15:48:55.003Z</time></trkpt><trkpt lat="45.59683942919038" lon="10.12077759015977"><ele>165.0</ele><time>2026-04-21T15:48:58.003Z</time></trkpt><trkpt lat="45.596823103324795" lon="10.120665431554446"><ele>165.0</ele><time>2026-04-21T15:49:01.003Z</time></trkpt><trkpt lat="45.596826480753776" lon="10.120559012889348"><ele>165.0</ele><time>2026-04-21T15:49:04.003Z</time></trkpt><trkpt lat="45.5968371417885" lon="10.120461433941127"><ele>165.00000000000003</ele><time>2026-04-21T15:49:07.003Z</time></trkpt><trkpt lat="45.5968406839499" lon="10.12036533159493"><ele>165.0</ele><time>2026-04-21T15:49:10.003Z</time></trkpt><trkpt lat="45.59686570881095" lon="10.120275500870287"><ele>165.14285714285717</ele><time>2026-04-21T15:49:13.003Z</time></trkpt><trkpt lat="45.59687998255671" lon="10.120177376096585"><ele>165.28571428571428</ele><time>2026-04-21T15:49:16.003Z</time></trkpt><trkpt lat="45.59689549125218" lon="10.120076626775026"><ele>165.42857142857144</ele><time>2026-04-21T15:49:19.003Z</time></trkpt><trkpt lat="45.59690377521669" lon="10.119975604222917"><ele>165.57142857142858</ele><time>2026-04-21T15:49:22.003Z</time></trkpt><trkpt lat="45.59690320455051" lon="10.119874472030423"><ele>165.71428571428572</ele><time>2026-04-21T15:49:25.003Z</time></trkpt><trkpt lat="45.59689542833515" lon="10.119779214914866"><ele>165.85714285714286</ele><time>2026-04-21T15:49:28.003Z</time></trkpt><trkpt lat="45.596886467098884" lon="10.119659054822606"><ele>166.0</ele><time>2026-04-21T15:49:32.003Z</time></trkpt><trkpt lat="45.59689144675572" lon="10.119557772596934"><ele>166.42857142857142</ele><time>2026-04-21T15:49:35.003Z</time></trkpt><trkpt lat="45.596901287506256" lon="10.11945036678307"><ele>166.85714285714286</ele><time>2026-04-21T15:49:38.003Z</time></trkpt><trkpt lat="45.596923035587146" lon="10.119347050952936"><ele>167.28571428571428</ele><time>2026-04-21T15:49:41.003Z</time></trkpt><trkpt lat="45.59693596598777" lon="10.119249920147253"><ele>167.71428571428572</ele><time>2026-04-21T15:49:44.003Z</time></trkpt><trkpt lat="45.596942330866106" lon="10.119138614224063"><ele>168.14285714285714</ele><time>2026-04-21T15:49:47.003Z</time></trkpt><trkpt lat="45.5969582758259" lon="10.119029063807774"><ele>168.57142857142858</ele><time>2026-04-21T15:49:50.003Z</time></trkpt><trkpt lat="45.59697552520637" lon="10.118937651296108"><ele>169.0</ele><time>2026-04-21T15:49:55.003Z</time></trkpt><trkpt lat="45.596995271489845" lon="10.11883477469977"><ele>168.83333333333334</ele><time>2026-04-21T15:49:58.003Z</time></trkpt><trkpt lat="45.59701831988882" lon="10.118716600510226"><ele>168.66666666666669</ele><time>2026-04-21T15:50:01.003Z</time></trkpt><trkpt lat="45.5970432758789" lon="10.118612061842029"><ele>168.5</ele><time>2026-04-21T15:50:04.003Z</time></trkpt><trkpt lat="45.59705071106435" lon="10.118503796718443"><ele>168.33333333333334</ele><time>2026-04-21T15:50:07.003Z</time></trkpt><trkpt lat="45.597055237974274" lon="10.118396299088928"><ele>168.16666666666666</ele><time>2026-04-21T15:50:10.003Z</time></trkpt><trkpt lat="45.59705805574522" lon="10.118287553582334"><ele>168.0</ele><time>2026-04-21T15:50:13.003Z</time></trkpt><trkpt lat="45.59705770678584" lon="10.118193777453543"><ele>168.28571428571428</ele><time>2026-04-21T15:50:16.003Z</time></trkpt><trkpt lat="45.59707749154131" lon="10.118096052940068"><ele>168.57142857142856</ele><time>2026-04-21T15:50:19.003Z</time></trkpt><trkpt lat="45.59709743649167" lon="10.118010032063804"><ele>168.85714285714286</ele><time>2026-04-21T15:50:22.003Z</time></trkpt><trkpt lat="45.59711171836839" lon="10.11791191032187"><ele>169.14285714285714</ele><time>2026-04-21T15:50:25.003Z</time></trkpt><trkpt lat="45.59709649262091" lon="10.117798238581136"><ele>169.42857142857142</ele><time>2026-04-21T15:50:28.003Z</time></trkpt><trkpt lat="45.597109690439" lon="10.117695038965316"><ele>169.71428571428572</ele><time>2026-04-21T15:50:31.003Z</time></trkpt><trkpt lat="45.59712116521499" lon="10.117593280834384"><ele>170.0</ele><time>2026-04-21T15:50:34.003Z</time></trkpt><trkpt lat="45.59713378121799" lon="10.117493487364655"><ele>170.16666666666666</ele><time>2026-04-21T15:50:37.003Z</time></trkpt><trkpt lat="45.59712600068353" lon="10.117366867967286"><ele>170.33333333333331</ele><time>2026-04-21T15:50:40.003Z</time></trkpt><trkpt lat="45.59711500355427" lon="10.117247001087172"><ele>170.5</ele><time>2026-04-21T15:50:43.003Z</time></trkpt><trkpt lat="45.59710029604861" lon="10.117130280426501"><ele>170.66666666666666</ele><time>2026-04-21T15:50:46.003Z</time></trkpt><trkpt lat="45.59709935540865" lon="10.11701095336543"><ele>170.83333333333334</ele><time>2026-04-21T15:50:49.003Z</time></trkpt><trkpt lat="45.59709868622535" lon="10.116905465122326"><ele>171.0</ele><time>2026-04-21T15:50:52.003Z</time></trkpt><trkpt lat="45.597109473287055" lon="10.116792084610198"><ele>171.0</ele><time>2026-04-21T15:50:55.003Z</time></trkpt><trkpt lat="45.597121406655894" lon="10.116681107506171"><ele>171.0</ele><time>2026-04-21T15:50:58.003Z</time></trkpt><trkpt lat="45.5971285091185" lon="10.116579305116542"><ele>171.0</ele><time>2026-04-21T15:51:01.003Z</time></trkpt><trkpt lat="45.59711115731028" lon="10.116463643135754"><ele>171.0</ele><time>2026-04-21T15:51:04.003Z</time></trkpt><trkpt lat="45.59710084747663" lon="10.116354194818758"><ele>171.0</ele><time>2026-04-21T15:51:07.003Z</time></trkpt><trkpt lat="45.59709099629058" lon="10.11625334129477"><ele>171.0</ele><time>2026-04-21T15:51:10.003Z</time></trkpt><trkpt lat="45.59709162866854" lon="10.116147088884636"><ele>171.14285714285714</ele><time>2026-04-21T15:51:13.003Z</time></trkpt><trkpt lat="45.5970927360943" lon="10.116049122967159"><ele>171.28571428571428</ele><time>2026-04-21T15:51:16.003Z</time></trkpt><trkpt lat="45.5970900201558" lon="10.115947320885123"><ele>171.42857142857144</ele><time>2026-04-21T15:51:19.003Z</time></trkpt><trkpt lat="45.597074668495864" lon="10.115854062870339"><ele>171.57142857142856</ele><time>2026-04-21T15:51:22.003Z</time></trkpt><trkpt lat="45.59706108238778" lon="10.11574674088275"><ele>171.71428571428572</ele><time>2026-04-21T15:51:25.003Z</time></trkpt><trkpt lat="45.597037709705624" lon="10.115654171600573"><ele>171.85714285714286</ele><time>2026-04-21T15:51:28.003Z</time></trkpt><trkpt lat="45.59702203972467" lon="10.115556618309766"><ele>172.0</ele><time>2026-04-21T15:51:31.003Z</time></trkpt><trkpt lat="45.59701472897642" lon="10.115461372982374"><ele>172.0</ele><time>2026-04-21T15:51:34.003Z</time></trkpt><trkpt lat="45.597013216477976" lon="10.115361596788071"><ele>172.0</ele><time>2026-04-21T15:51:37.003Z</time></trkpt><trkpt lat="45.597001712555276" lon="10.115263608228263"><ele>172.0</ele><time>2026-04-21T15:51:40.003Z</time></trkpt><trkpt lat="45.5969786469908" lon="10.11516094000694"><ele>172.0</ele><time>2026-04-21T15:51:43.003Z</time></trkpt><trkpt lat="45.59696137281309" lon="10.115055104451809"><ele>172.0</ele><time>2026-04-21T15:51:46.003Z</time></trkpt><trkpt lat="45.59694722461635" lon="10.114943259565027"><ele>172.0</ele><time>2026-04-21T15:51:49.003Z</time></trkpt><trkpt lat="45.59692817589337" lon="10.114831093848885"><ele>172.00000000000003</ele><time>2026-04-21T15:51:52.003Z</time></trkpt><trkpt lat="45.596918188111786" lon="10.114726578943664"><ele>172.0</ele><time>2026-04-21T15:51:55.003Z</time></trkpt><trkpt lat="45.596905886641366" lon="10.114631746404038"><ele>172.0</ele><time>2026-04-21T15:51:58.004Z</time></trkpt><trkpt lat="45.596890195069186" lon="10.114535970807948"><ele>172.0</ele><time>2026-04-21T15:52:01.004Z</time></trkpt><trkpt lat="45.59687717213894" lon="10.114437390532691"><ele>172.0</ele><time>2026-04-21T15:52:04.004Z</time></trkpt><trkpt lat="45.596860409972045" lon="10.114341718958249"><ele>172.00000000000003</ele><time>2026-04-21T15:52:07.004Z</time></trkpt><trkpt lat="45.59684101301853" lon="10.114237466825118"><ele>172.0</ele><time>2026-04-21T15:52:10.004Z</time></trkpt><trkpt lat="45.596827584760774" lon="10.114137540555683"><ele>172.14285714285717</ele><time>2026-04-21T15:52:13.004Z</time></trkpt><trkpt lat="45.596816701117966" lon="10.114039978265872"><ele>172.28571428571428</ele><time>2026-04-21T15:52:16.004Z</time></trkpt><trkpt lat="45.59680833614456" lon="10.113940356498707"><ele>172.42857142857144</ele><time>2026-04-21T15:52:19.004Z</time></trkpt><trkpt lat="45.596796179246645" lon="10.11384740061788"><ele>172.57142857142858</ele><time>2026-04-21T15:52:22.004Z</time></trkpt><trkpt lat="45.59678308432419" lon="10.113755747390954"><ele>172.71428571428572</ele><time>2026-04-21T15:52:25.004Z</time></trkpt><trkpt lat="45.59677982901745" lon="10.113663919977807"><ele>172.85714285714286</ele><time>2026-04-21T15:52:28.004Z</time></trkpt><trkpt lat="45.596783105260315" lon="10.113560326339108"><ele>173.0</ele><time>2026-04-21T15:52:31.004Z</time></trkpt><trkpt lat="45.596788727727144" lon="10.113452847552322"><ele>173.0</ele><time>2026-04-21T15:52:34.004Z</time></trkpt><trkpt lat="45.5967978248384" lon="10.113345877369731"><ele>173.0</ele><time>2026-04-21T15:52:37.004Z</time></trkpt><trkpt lat="45.59679259023654" lon="10.113228447003896"><ele>173.0</ele><time>2026-04-21T15:52:41.004Z</time></trkpt><trkpt lat="45.59679645758424" lon="10.113126804406"><ele>173.0</ele><time>2026-04-21T15:52:44.004Z</time></trkpt><trkpt lat="45.59679549931987" lon="10.113027446171742"><ele>173.0</ele><time>2026-04-21T15:52:47.004Z</time></trkpt><trkpt lat="45.5968082730592" lon="10.112924437926734"><ele>173.0</ele><time>2026-04-21T15:52:50.004Z</time></trkpt><trkpt lat="45.59683419835867" lon="10.112820333374556"><ele>173.0</ele><time>2026-04-21T15:52:53.004Z</time></trkpt><trkpt lat="45.59686254907115" lon="10.112720642169407"><ele>173.0</ele><time>2026-04-21T15:52:56.004Z</time></trkpt><trkpt lat="45.59687803235769" lon="10.11261638988862"><ele>173.0</ele><time>2026-04-21T15:52:59.004Z</time></trkpt><trkpt lat="45.5968957808803" lon="10.112513247103058"><ele>173.0</ele><time>2026-04-21T15:53:02.004Z</time></trkpt><trkpt lat="45.59691668214566" lon="10.112411269221482"><ele>173.0</ele><time>2026-04-21T15:53:05.004Z</time></trkpt><trkpt lat="45.59694756863799" lon="10.11232591037375"><ele>173.0</ele><time>2026-04-21T15:53:08.004Z</time></trkpt><trkpt lat="45.59698654304601" lon="10.112240388955867"><ele>173.0</ele><time>2026-04-21T15:53:11.004Z</time></trkpt><trkpt lat="45.597023241408294" lon="10.11215239240257"><ele>173.0</ele><time>2026-04-21T15:53:14.004Z</time></trkpt><trkpt lat="45.59706429410426" lon="10.112071898403428"><ele>173.66666666666666</ele><time>2026-04-21T15:53:17.004Z</time></trkpt><trkpt lat="45.597108895025116" lon="10.111997196065667"><ele>174.33333333333331</ele><time>2026-04-21T15:53:20.004Z</time></trkpt><trkpt lat="45.59715282760158" lon="10.111918367268755"><ele>175.0</ele><time>2026-04-21T15:53:23.004Z</time></trkpt><trkpt lat="45.59720768107625" lon="10.111815182491739"><ele>175.66666666666666</ele><time>2026-04-21T15:53:26.004Z</time></trkpt><trkpt lat="45.59722308609762" lon="10.111702494387218"><ele>176.33333333333334</ele><time>2026-04-21T15:53:29.004Z</time></trkpt><trkpt lat="45.59725086046619" lon="10.111604503153524"><ele>177.0</ele><time>2026-04-21T15:53:32.004Z</time></trkpt><trkpt lat="45.59725499087176" lon="10.111505844986935"><ele>177.0</ele><time>2026-04-21T15:53:35.004Z</time></trkpt><trkpt lat="45.59729516373163" lon="10.111409224350128"><ele>177.0</ele><time>2026-04-21T15:53:38.004Z</time></trkpt><trkpt lat="45.59733877198918" lon="10.111323542495297"><ele>177.0</ele><time>2026-04-21T15:53:41.004Z</time></trkpt><trkpt lat="45.59740417842357" lon="10.111247945946435"><ele>177.0</ele><time>2026-04-21T15:53:45.004Z</time></trkpt><trkpt lat="45.597454239685106" lon="10.111172268796334"><ele>177.0</ele><time>2026-04-21T15:53:48.004Z</time></trkpt><trkpt lat="45.59750455811556" lon="10.111078802067999"><ele>177.0</ele><time>2026-04-21T15:53:51.004Z</time></trkpt><trkpt lat="45.59755745778511" lon="10.110992475057678"><ele>177.0</ele><time>2026-04-21T15:53:54.004Z</time></trkpt><trkpt lat="45.597589392006945" lon="10.110892864508044"><ele>177.0</ele><time>2026-04-21T15:53:57.004Z</time></trkpt><trkpt lat="45.597600833835145" lon="10.110778818367248"><ele>177.0</ele><time>2026-04-21T15:54:00.004Z</time></trkpt><trkpt lat="45.59765705883862" lon="10.110706633029475"><ele>177.0</ele><time>2026-04-21T15:54:03.004Z</time></trkpt><trkpt lat="45.597726259381965" lon="10.11074600630395"><ele>177.0</ele><time>2026-04-21T15:54:06.004Z</time></trkpt><trkpt lat="45.59777531797411" lon="10.110816782176444"><ele>177.0</ele><time>2026-04-21T15:54:09.004Z</time></trkpt><trkpt lat="45.5978197893045" lon="10.110893809952875"><ele>177.0</ele><time>2026-04-21T15:54:12.004Z</time></trkpt><trkpt lat="45.597867306108945" lon="10.110970525567142"><ele>176.5</ele><time>2026-04-21T15:54:16.004Z</time></trkpt><trkpt lat="45.59794658214509" lon="10.11099326592228"><ele>176.0</ele><time>2026-04-21T15:54:20.004Z</time></trkpt><trkpt lat="45.59803531251402" lon="10.111010778169048"><ele>175.5</ele><time>2026-04-21T15:54:24.004Z</time></trkpt><trkpt lat="45.59810569680131" lon="10.111043986079626"><ele>175.0</ele><time>2026-04-21T15:54:27.004Z</time></trkpt><trkpt lat="45.598188757967776" lon="10.11109723831257"><ele>174.5</ele><time>2026-04-21T15:54:30.004Z</time></trkpt><trkpt lat="45.598251880345316" lon="10.111163853519555"><ele>174.0</ele><time>2026-04-21T15:54:33.004Z</time></trkpt><trkpt lat="45.59832130698983" lon="10.111215078144713"><ele>174.0</ele><time>2026-04-21T15:54:36.004Z</time></trkpt><trkpt lat="45.59838669940807" lon="10.111271808969567"><ele>174.0</ele><time>2026-04-21T15:54:39.004Z</time></trkpt><trkpt lat="45.59846250071439" lon="10.111309604131009"><ele>174.0</ele><time>2026-04-21T15:54:42.004Z</time></trkpt><trkpt lat="45.598523342941775" lon="10.111361662460563"><ele>174.0</ele><time>2026-04-21T15:54:45.004Z</time></trkpt><trkpt lat="45.59859418968148" lon="10.111420100899897"><ele>174.0</ele><time>2026-04-21T15:54:48.004Z</time></trkpt><trkpt lat="45.598666830538036" lon="10.111453851325708"><ele>174.0</ele><time>2026-04-21T15:54:51.004Z</time></trkpt><trkpt lat="45.59873065231891" lon="10.111499978463945"><ele>174.16666666666666</ele><time>2026-04-21T15:54:54.004Z</time></trkpt><trkpt lat="45.598803930508886" lon="10.1115306685867"><ele>174.33333333333334</ele><time>2026-04-21T15:54:57.004Z</time></trkpt><trkpt lat="45.598876642328754" lon="10.111555355598709"><ele>174.5</ele><time>2026-04-21T15:55:00.004Z</time></trkpt><trkpt lat="45.59894605009222" lon="10.111574666625323"><ele>174.66666666666669</ele><time>2026-04-21T15:55:03.004Z</time></trkpt><trkpt lat="45.599017654470664" lon="10.111564055570717"><ele>174.83333333333334</ele><time>2026-04-21T15:55:06.004Z</time></trkpt><trkpt lat="45.59909076243778" lon="10.111558494656968"><ele>175.0</ele><time>2026-04-21T15:55:09.004Z</time></trkpt><trkpt lat="45.599172500971534" lon="10.111538716499785"><ele>175.0</ele><time>2026-04-21T15:55:12.004Z</time></trkpt><trkpt lat="45.59926447011423" lon="10.111525240894965"><ele>175.0</ele><time>2026-04-21T15:55:16.004Z</time></trkpt><trkpt lat="45.59932825398156" lon="10.111513446348791"><ele>175.0</ele><time>2026-04-21T15:55:19.004Z</time></trkpt><trkpt lat="45.599397328832296" lon="10.111491434544899"><ele>175.0</ele><time>2026-04-21T15:55:22.004Z</time></trkpt><trkpt lat="45.599462610979174" lon="10.111443961640944"><ele>175.0</ele><time>2026-04-21T15:55:25.004Z</time></trkpt><trkpt lat="45.599532272445416" lon="10.11140171558146"><ele>175.0</ele><time>2026-04-21T15:55:28.004Z</time></trkpt><trkpt lat="45.59959352371372" lon="10.111342392564566"><ele>175.42857142857142</ele><time>2026-04-21T15:55:31.004Z</time></trkpt><trkpt lat="45.59964735370063" lon="10.11127645734796"><ele>175.85714285714286</ele><time>2026-04-21T15:55:34.004Z</time></trkpt><trkpt lat="45.59969325473976" lon="10.111195279168413"><ele>176.28571428571428</ele><time>2026-04-21T15:55:37.004Z</time></trkpt><trkpt lat="45.59972977640313" lon="10.111105208107011"><ele>176.71428571428572</ele><time>2026-04-21T15:55:40.004Z</time></trkpt><trkpt lat="45.59976440209654" lon="10.111013050919174"><ele>177.14285714285714</ele><time>2026-04-21T15:55:43.004Z</time></trkpt><trkpt lat="45.599795307654595" lon="10.110921670250873"><ele>177.57142857142856</ele><time>2026-04-21T15:55:46.004Z</time></trkpt><trkpt lat="45.59984906720062" lon="10.110825312170443"><ele>178.0</ele><time>2026-04-21T15:55:50.004Z</time></trkpt><trkpt lat="45.59991242758177" lon="10.11076054166667"><ele>177.99999999999997</ele><time>2026-04-21T15:55:53.004Z</time></trkpt><trkpt lat="45.59996699452684" lon="10.110703026899678"><ele>178.0</ele><time>2026-04-21T15:55:56.004Z</time></trkpt><trkpt lat="45.6000243344976" lon="10.110646923035276"><ele>178.0</ele><time>2026-04-21T15:55:59.005Z</time></trkpt><trkpt lat="45.600095241225404" lon="10.110621352287604"><ele>178.0</ele><time>2026-04-21T15:56:02.005Z</time></trkpt><trkpt lat="45.60016434648436" lon="10.110591948925938"><ele>178.0</ele><time>2026-04-21T15:56:05.005Z</time></trkpt><trkpt lat="45.600234213659" lon="10.11057112158726"><ele>177.99999999999997</ele><time>2026-04-21T15:56:08.005Z</time></trkpt><trkpt lat="45.60030326183828" lon="10.110564863217505"><ele>178.0</ele><time>2026-04-21T15:56:11.005Z</time></trkpt><trkpt lat="45.60036640937369" lon="10.110560434997309"><ele>178.0</ele><time>2026-04-21T15:56:14.005Z</time></trkpt><trkpt lat="45.6004379736749" lon="10.11053977764153"><ele>178.0</ele><time>2026-04-21T15:56:18.005Z</time></trkpt><trkpt lat="45.60036748123713" lon="10.11049476406628"><ele>178.0</ele><time>2026-04-21T15:58:02.005Z</time></trkpt><trkpt lat="45.600287751732445" lon="10.110495450806475"><ele>178.0</ele><time>2026-04-21T15:58:05.005Z</time></trkpt><trkpt lat="45.600204031738095" lon="10.1105304141432"><ele>178.0</ele><time>2026-04-21T15:58:08.005Z</time></trkpt><trkpt lat="45.60011769047982" lon="10.110570392981447"><ele>178.0</ele><time>2026-04-21T15:58:11.005Z</time></trkpt><trkpt lat="45.60003264413946" lon="10.110603372666443"><ele>178.0</ele><time>2026-04-21T15:58:14.005Z</time></trkpt><trkpt lat="45.599962161174375" lon="10.110671152780782"><ele>178.0</ele><time>2026-04-21T15:58:17.005Z</time></trkpt><trkpt lat="45.59989391682436" lon="10.110754275724933"><ele>178.0</ele><time>2026-04-21T15:58:20.005Z</time></trkpt><trkpt lat="45.599843648960764" lon="10.110846665913218"><ele>178.0</ele><time>2026-04-21T15:58:23.005Z</time></trkpt><trkpt lat="45.599796560209676" lon="10.110947954102015"><ele>178.0</ele><time>2026-04-21T15:58:26.005Z</time></trkpt><trkpt lat="45.59975825689896" lon="10.11105292823846"><ele>178.0</ele><time>2026-04-21T15:58:29.005Z</time></trkpt><trkpt lat="45.59969952650002" lon="10.111138304653982"><ele>178.0</ele><time>2026-04-21T15:58:32.005Z</time></trkpt><trkpt lat="45.59965586801523" lon="10.111227044774859"><ele>178.0</ele><time>2026-04-21T15:58:35.005Z</time></trkpt><trkpt lat="45.59958962554447" lon="10.111301288240153"><ele>178.0</ele><time>2026-04-21T15:58:38.005Z</time></trkpt><trkpt lat="45.599524366242996" lon="10.111376546566339"><ele>178.0</ele><time>2026-04-21T15:58:41.005Z</time></trkpt><trkpt lat="45.59945690792316" lon="10.111445875042433"><ele>178.0</ele><time>2026-04-21T15:58:44.005Z</time></trkpt><trkpt lat="45.59938517986636" lon="10.111483130701082"><ele>178.0</ele><time>2026-04-21T15:58:47.005Z</time></trkpt><trkpt lat="45.59931677695114" lon="10.111494860581937"><ele>177.5</ele><time>2026-04-21T15:58:50.005Z</time></trkpt><trkpt lat="45.59923504032433" lon="10.111487443804359"><ele>177.0</ele><time>2026-04-21T15:58:53.001Z</time></trkpt><trkpt lat="45.59916111454651" lon="10.111500854654532"><ele>176.5</ele><time>2026-04-21T15:58:56.001Z</time></trkpt><trkpt lat="45.59908730149103" lon="10.111501993322088"><ele>176.0</ele><time>2026-04-21T15:58:59.001Z</time></trkpt><trkpt lat="45.59902103620883" lon="10.111508577061214"><ele>175.5</ele><time>2026-04-21T15:59:02.001Z</time></trkpt><trkpt lat="45.59894438094393" lon="10.111477322061031"><ele>175.0</ele><time>2026-04-21T15:59:05.001Z</time></trkpt><trkpt lat="45.59885947676276" lon="10.111458829804459"><ele>175.0</ele><time>2026-04-21T15:59:08.001Z</time></trkpt><trkpt lat="45.59877625199968" lon="10.111457297093645"><ele>175.0</ele><time>2026-04-21T15:59:11.001Z</time></trkpt><trkpt lat="45.598696529371345" lon="10.111423616477651"><ele>175.0</ele><time>2026-04-21T15:59:14.001Z</time></trkpt><trkpt lat="45.598618846554764" lon="10.111384985295674"><ele>175.0</ele><time>2026-04-21T15:59:17.001Z</time></trkpt><trkpt lat="45.59854839771345" lon="10.111341524293808"><ele>175.0</ele><time>2026-04-21T15:59:20.001Z</time></trkpt><trkpt lat="45.59848561908861" lon="10.111295401758486"><ele>175.0</ele><time>2026-04-21T15:59:23.001Z</time></trkpt><trkpt lat="45.59841700759561" lon="10.111241231766952"><ele>174.83333333333334</ele><time>2026-04-21T15:59:26.001Z</time></trkpt><trkpt lat="45.598347863899114" lon="10.111175194033866"><ele>174.66666666666669</ele><time>2026-04-21T15:59:29.001Z</time></trkpt><trkpt lat="45.59828921596989" lon="10.111099495236665"><ele>174.5</ele><time>2026-04-21T15:59:32.001Z</time></trkpt><trkpt lat="45.59822299339537" lon="10.11103791159277"><ele>174.33333333333334</ele><time>2026-04-21T15:59:35.001Z</time></trkpt><trkpt lat="45.598136270988974" lon="10.111024786074378"><ele>174.16666666666666</ele><time>2026-04-21T15:59:38Z</time></trkpt><trkpt lat="45.59805474841285" lon="10.111016776268128"><ele>174.0</ele><time>2026-04-21T15:59:41Z</time></trkpt><trkpt lat="45.597974437097875" lon="10.11099758713112"><ele>174.0</ele><time>2026-04-21T15:59:44Z</time></trkpt><trkpt lat="45.59789963668432" lon="10.110966108298982"><ele>174.0</ele><time>2026-04-21T15:59:47Z</time></trkpt><trkpt lat="45.59783076485714" lon="10.110895918394817"><ele>174.0</ele><time>2026-04-21T15:59:50Z</time></trkpt><trkpt lat="45.59777520017596" lon="10.11081644029055"><ele>174.0</ele><time>2026-04-21T15:59:53.001Z</time></trkpt><trkpt lat="45.597719236242895" lon="10.110746760395264"><ele>174.0</ele><time>2026-04-21T15:59:56.001Z</time></trkpt><trkpt lat="45.597652060320435" lon="10.110744952687822"><ele>174.0</ele><time>2026-04-21T16:00:00.001Z</time></trkpt><trkpt lat="45.59763754770035" lon="10.110846568440842"><ele>174.5</ele><time>2026-04-21T16:00:04.001Z</time></trkpt><trkpt lat="45.59760103941881" lon="10.110961043267945"><ele>175.0</ele><time>2026-04-21T16:00:07.001Z</time></trkpt><trkpt lat="45.59756783282343" lon="10.111062400885308"><ele>175.5</ele><time>2026-04-21T16:00:10.001Z</time></trkpt><trkpt lat="45.597533546851466" lon="10.111156395664592"><ele>176.0</ele><time>2026-04-21T16:00:13.001Z</time></trkpt><trkpt lat="45.59748618171636" lon="10.111242994324757"><ele>176.5</ele><time>2026-04-21T16:00:16.001Z</time></trkpt><trkpt lat="45.59742747766074" lon="10.111307922826782"><ele>177.0</ele><time>2026-04-21T16:00:20.001Z</time></trkpt><trkpt lat="45.597372281648745" lon="10.111411284468902"><ele>177.0</ele><time>2026-04-21T16:00:23.001Z</time></trkpt><trkpt lat="45.597318646224714" lon="10.111492720551606"><ele>177.0</ele><time>2026-04-21T16:00:26.001Z</time></trkpt><trkpt lat="45.5972830014648" lon="10.111590519434724"><ele>177.0</ele><time>2026-04-21T16:00:29.001Z</time></trkpt><trkpt lat="45.597248214014506" lon="10.111695326066927"><ele>177.0</ele><time>2026-04-21T16:00:32.001Z</time></trkpt><trkpt lat="45.59721025249783" lon="10.111793897507669"><ele>177.0</ele><time>2026-04-21T16:00:35.001Z</time></trkpt><trkpt lat="45.59717561397416" lon="10.111878869621599"><ele>177.0</ele><time>2026-04-21T16:00:39.001Z</time></trkpt><trkpt lat="45.59712093227473" lon="10.111971810832243"><ele>176.66666666666666</ele><time>2026-04-21T16:00:42.001Z</time></trkpt><trkpt lat="45.597055486712364" lon="10.112047596018293"><ele>176.33333333333334</ele><time>2026-04-21T16:00:45.001Z</time></trkpt><trkpt lat="45.596991995057394" lon="10.112130964005942"><ele>176.0</ele><time>2026-04-21T16:00:48.001Z</time></trkpt><trkpt lat="45.596944198131546" lon="10.112234091738936"><ele>175.66666666666669</ele><time>2026-04-21T16:00:51.001Z</time></trkpt><trkpt lat="45.5969300173907" lon="10.112323584190428"><ele>175.33333333333334</ele><time>2026-04-21T16:00:53.001Z</time></trkpt><trkpt lat="45.596910611774135" lon="10.11243411028242"><ele>175.0</ele><time>2026-04-21T16:00:56.001Z</time></trkpt><trkpt lat="45.596895760899834" lon="10.112551544735728"><ele>174.66666666666669</ele><time>2026-04-21T16:00:59.001Z</time></trkpt><trkpt lat="45.59687148767464" lon="10.112661216474196"><ele>174.33333333333334</ele><time>2026-04-21T16:01:02.001Z</time></trkpt><trkpt lat="45.59685562773942" lon="10.11277319866789"><ele>174.0</ele><time>2026-04-21T16:01:05.001Z</time></trkpt><trkpt lat="45.59684067805393" lon="10.112883397503813"><ele>173.66666666666666</ele><time>2026-04-21T16:01:08.001Z</time></trkpt><trkpt lat="45.59681616787427" lon="10.113004105134966"><ele>173.33333333333331</ele><time>2026-04-21T16:01:11.001Z</time></trkpt><trkpt lat="45.59680123664776" lon="10.113120244182285"><ele>173.0</ele><time>2026-04-21T16:01:14.001Z</time></trkpt><trkpt lat="45.59678774329598" lon="10.113242962143593"><ele>173.0</ele><time>2026-04-21T16:01:17.001Z</time></trkpt><trkpt lat="45.59677492039287" lon="10.113352479917587"><ele>173.0</ele><time>2026-04-21T16:01:20.001Z</time></trkpt><trkpt lat="45.59676238884519" lon="10.113476025017354"><ele>173.0</ele><time>2026-04-21T16:01:23.001Z</time></trkpt><trkpt lat="45.596759826905654" lon="10.11359144496241"><ele>173.0</ele><time>2026-04-21T16:01:26.001Z</time></trkpt><trkpt lat="45.59677163069636" lon="10.113695846453288"><ele>173.0</ele><time>2026-04-21T16:01:29.001Z</time></trkpt><trkpt lat="45.59678855574177" lon="10.113788805937716"><ele>173.0</ele><time>2026-04-21T16:01:32.001Z</time></trkpt><trkpt lat="45.596798083892644" lon="10.113907696145576"><ele>173.0</ele><time>2026-04-21T16:01:35.001Z</time></trkpt><trkpt lat="45.59680889513634" lon="10.114020708934012"><ele>173.0</ele><time>2026-04-21T16:01:38.001Z</time></trkpt><trkpt lat="45.596823679981355" lon="10.114131900515552"><ele>173.0</ele><time>2026-04-21T16:01:41.001Z</time></trkpt><trkpt lat="45.596838112440494" lon="10.114249156532582"><ele>173.0</ele><time>2026-04-21T16:01:44.001Z</time></trkpt><trkpt lat="45.596854856839485" lon="10.114361298954872"><ele>173.0</ele><time>2026-04-21T16:01:47Z</time></trkpt><trkpt lat="45.596866740007215" lon="10.114475860403553"><ele>173.0</ele><time>2026-04-21T16:01:50.001Z</time></trkpt><trkpt lat="45.596895332080436" lon="10.114592579243753"><ele>172.83333333333331</ele><time>2026-04-21T16:01:53Z</time></trkpt><trkpt lat="45.596902106254724" lon="10.114702376194417"><ele>172.66666666666666</ele><time>2026-04-21T16:01:56.001Z</time></trkpt><trkpt lat="45.59691967848062" lon="10.114811130269542"><ele>172.5</ele><time>2026-04-21T16:01:59Z</time></trkpt><trkpt lat="45.596940841236474" lon="10.114919635050278"><ele>172.33333333333334</ele><time>2026-04-21T16:02:02Z</time></trkpt><trkpt lat="45.59695216185364" lon="10.115039195317657"><ele>172.16666666666669</ele><time>2026-04-21T16:02:05Z</time></trkpt><trkpt lat="45.596964084420456" lon="10.115148652650072"><ele>172.0</ele><time>2026-04-21T16:02:08Z</time></trkpt><trkpt lat="45.596993436290006" lon="10.11525508833392"><ele>171.83333333333334</ele><time>2026-04-21T16:02:11Z</time></trkpt><trkpt lat="45.597011928092805" lon="10.115364822966168"><ele>171.66666666666669</ele><time>2026-04-21T16:02:14Z</time></trkpt><trkpt lat="45.59702036053689" lon="10.115474176743316"><ele>171.5</ele><time>2026-04-21T16:02:17Z</time></trkpt><trkpt lat="45.59702348238256" lon="10.115579268879145"><ele>171.33333333333334</ele><time>2026-04-21T16:02:21Z</time></trkpt><trkpt lat="45.596956579679436" lon="10.115609281719593"><ele>171.16666666666666</ele><time>2026-04-21T16:02:25Z</time></trkpt><trkpt lat="45.59689908107722" lon="10.11568617764054"><ele>171.0</ele><time>2026-04-21T16:02:28Z</time></trkpt><trkpt lat="45.596894927956576" lon="10.115797526916326"><ele>170.83333333333334</ele><time>2026-04-21T16:02:32Z</time></trkpt><trkpt lat="45.59692167882884" lon="10.115910524513708"><ele>170.66666666666666</ele><time>2026-04-21T16:02:35Z</time></trkpt><trkpt lat="45.596957197909866" lon="10.116033666023373"><ele>170.5</ele><time>2026-04-21T16:02:39Z</time></trkpt><trkpt lat="45.596993250358665" lon="10.116112329566803"><ele>170.33333333333331</ele><time>2026-04-21T16:02:41Z</time></trkpt><trkpt lat="45.59700798885052" lon="10.116229648448808"><ele>170.16666666666666</ele><time>2026-04-21T16:02:44Z</time></trkpt><trkpt lat="45.597025472782455" lon="10.116345657991504"><ele>170.0</ele><time>2026-04-21T16:02:47Z</time></trkpt><trkpt lat="45.5970324071871" lon="10.116461048686364"><ele>170.16666666666666</ele><time>2026-04-21T16:02:50Z</time></trkpt><trkpt lat="45.59704396281039" lon="10.116584572595503"><ele>170.33333333333331</ele><time>2026-04-21T16:02:53Z</time></trkpt><trkpt lat="45.59705299377976" lon="10.116706766836732"><ele>170.5</ele><time>2026-04-21T16:02:56Z</time></trkpt><trkpt lat="45.59705480027561" lon="10.116821607770039"><ele>170.66666666666666</ele><time>2026-04-21T16:02:59Z</time></trkpt><trkpt lat="45.59706222716734" lon="10.116939431708396"><ele>170.83333333333334</ele><time>2026-04-21T16:03:02Z</time></trkpt><trkpt lat="45.59708227615891" lon="10.11703181957894"><ele>171.0</ele><time>2026-04-21T16:03:21.001Z</time></trkpt><trkpt lat="45.5971040612064" lon="10.117117406817453"><ele>171.0</ele><time>2026-04-21T16:05:00.001Z</time></trkpt><trkpt lat="45.59706966241906" lon="10.11719546508848"><ele>171.0</ele><time>2026-04-21T16:05:03.001Z</time></trkpt><trkpt lat="45.59704953674481" lon="10.117322249846362"><ele>171.0</ele><time>2026-04-21T16:05:06.001Z</time></trkpt><trkpt lat="45.59703364494839" lon="10.117444342730677"><ele>171.0</ele><time>2026-04-21T16:05:10.001Z</time></trkpt><trkpt lat="45.597025366089696" lon="10.117546017214277"><ele>171.0</ele><time>2026-04-21T16:05:13.001Z</time></trkpt><trkpt lat="45.59702994243854" lon="10.117662252507623"><ele>171.0</ele><time>2026-04-21T16:05:16.001Z</time></trkpt><trkpt lat="45.597012324975296" lon="10.117776726808993"><ele>170.83333333333334</ele><time>2026-04-21T16:05:19.001Z</time></trkpt><trkpt lat="45.597008463464995" lon="10.117885443590037"><ele>170.66666666666666</ele><time>2026-04-21T16:05:22.001Z</time></trkpt><trkpt lat="45.59700123557736" lon="10.118001627849383"><ele>170.5</ele><time>2026-04-21T16:05:25.001Z</time></trkpt><trkpt lat="45.597009666354936" lon="10.118123808330944"><ele>170.33333333333331</ele><time>2026-04-21T16:05:28.001Z</time></trkpt><trkpt lat="45.59698801429603" lon="10.118246094224368"><ele>170.16666666666666</ele><time>2026-04-21T16:05:31.001Z</time></trkpt><trkpt lat="45.59697037408483" lon="10.11835697082132"><ele>170.0</ele><time>2026-04-21T16:05:34.001Z</time></trkpt><trkpt lat="45.59696059243593" lon="10.11848142889579"><ele>169.83333333333331</ele><time>2026-04-21T16:05:37.001Z</time></trkpt><trkpt lat="45.59694956788862" lon="10.118595210610223"><ele>169.66666666666666</ele><time>2026-04-21T16:05:40.001Z</time></trkpt><trkpt lat="45.596932725558005" lon="10.118707260048653"><ele>169.5</ele><time>2026-04-21T16:05:43.001Z</time></trkpt><trkpt lat="45.59691148615661" lon="10.118827510646765"><ele>169.33333333333334</ele><time>2026-04-21T16:05:46.001Z</time></trkpt><trkpt lat="45.59688898295449" lon="10.118946984630318"><ele>169.16666666666669</ele><time>2026-04-21T16:05:49.001Z</time></trkpt><trkpt lat="45.59687062422429" lon="10.119057842895776"><ele>169.0</ele><time>2026-04-21T16:05:52.001Z</time></trkpt><trkpt lat="45.59686324461523" lon="10.119172906091661"><ele>169.0</ele><time>2026-04-21T16:05:55.001Z</time></trkpt><trkpt lat="45.596858638757155" lon="10.119295291909056"><ele>169.0</ele><time>2026-04-21T16:05:58.001Z</time></trkpt><trkpt lat="45.59685379650737" lon="10.11940201672893"><ele>169.0</ele><time>2026-04-21T16:06:01.001Z</time></trkpt><trkpt lat="45.59683063256168" lon="10.11951222558327"><ele>169.0</ele><time>2026-04-21T16:06:04.001Z</time></trkpt><trkpt lat="45.59681953903535" lon="10.119626638999703"><ele>169.0</ele><time>2026-04-21T16:06:07.001Z</time></trkpt><trkpt lat="45.59681339925212" lon="10.119747481697575"><ele>169.0</ele><time>2026-04-21T16:06:10.001Z</time></trkpt><trkpt lat="45.59680623123649" lon="10.119880045979434"><ele>168.5</ele><time>2026-04-21T16:06:13.001Z</time></trkpt><trkpt lat="45.59679826807078" lon="10.120008177241578"><ele>168.0</ele><time>2026-04-21T16:06:16.001Z</time></trkpt><trkpt lat="45.596796013392826" lon="10.1201263671954"><ele>167.5</ele><time>2026-04-21T16:06:19.001Z</time></trkpt><trkpt lat="45.59678875833756" lon="10.12023299633957"><ele>167.0</ele><time>2026-04-21T16:06:22.001Z</time></trkpt><trkpt lat="45.59678486401269" lon="10.120352764528528"><ele>166.5</ele><time>2026-04-21T16:06:25.001Z</time></trkpt><trkpt lat="45.59677409553091" lon="10.120473154632744"><ele>166.0</ele><time>2026-04-21T16:06:28.001Z</time></trkpt><trkpt lat="45.59676322613055" lon="10.120582551900593"><ele>166.0</ele><time>2026-04-21T16:06:31.001Z</time></trkpt><trkpt lat="45.59676174913783" lon="10.120698539733342"><ele>166.0</ele><time>2026-04-21T16:06:34.001Z</time></trkpt><trkpt lat="45.59675506484379" lon="10.120792326802011"><ele>166.0</ele><time>2026-04-21T16:06:37.001Z</time></trkpt><trkpt lat="45.59675418715097" lon="10.120911549326749"><ele>166.0</ele><time>2026-04-21T16:06:40.001Z</time></trkpt><trkpt lat="45.59676709687414" lon="10.121026181594916"><ele>166.0</ele><time>2026-04-21T16:06:43.001Z</time></trkpt><trkpt lat="45.596805862075584" lon="10.121107714316132"><ele>166.0</ele><time>2026-04-21T16:06:51.001Z</time></trkpt><trkpt lat="45.59681685424484" lon="10.121240044284548"><ele>165.83333333333334</ele><time>2026-04-21T16:06:55.001Z</time></trkpt><trkpt lat="45.596835924987225" lon="10.12132897985088"><ele>165.66666666666669</ele><time>2026-04-21T16:06:58.001Z</time></trkpt><trkpt lat="45.59681196071792" lon="10.121449894682039"><ele>165.5</ele><time>2026-04-21T16:07:01.001Z</time></trkpt><trkpt lat="45.59679450013544" lon="10.121541438045968"><ele>165.33333333333334</ele><time>2026-04-21T16:07:04.001Z</time></trkpt><trkpt lat="45.59677980908057" lon="10.12164009151288"><ele>165.16666666666666</ele><time>2026-04-21T16:07:07.002Z</time></trkpt><trkpt lat="45.59675993072334" lon="10.121752017416107"><ele>165.0</ele><time>2026-04-21T16:07:10.002Z</time></trkpt><trkpt lat="45.59673211154177" lon="10.121864692924055"><ele>165.0</ele><time>2026-04-21T16:07:13.002Z</time></trkpt><trkpt lat="45.59669479549794" lon="10.121974046600435"><ele>165.0</ele><time>2026-04-21T16:07:16.002Z</time></trkpt><trkpt lat="45.59665723578851" lon="10.122071032325147"><ele>165.0</ele><time>2026-04-21T16:07:19.002Z</time></trkpt><trkpt lat="45.596646441482" lon="10.122192289760433"><ele>165.0</ele><time>2026-04-21T16:07:22.002Z</time></trkpt><trkpt lat="45.5966164978043" lon="10.122310868543584"><ele>165.0</ele><time>2026-04-21T16:07:25.002Z</time></trkpt><trkpt lat="45.59658537435782" lon="10.122422248070198"><ele>165.0</ele><time>2026-04-21T16:07:28.002Z</time></trkpt><trkpt lat="45.59657202851151" lon="10.12253242777825"><ele>165.16666666666666</ele><time>2026-04-21T16:07:31.002Z</time></trkpt><trkpt lat="45.59655259324004" lon="10.122660159736167"><ele>165.33333333333334</ele><time>2026-04-21T16:07:34.002Z</time></trkpt><trkpt lat="45.596556904040966" lon="10.122773670289586"><ele>165.5</ele><time>2026-04-21T16:07:37.002Z</time></trkpt><trkpt lat="45.59656800381974" lon="10.122891746362786"><ele>165.66666666666669</ele><time>2026-04-21T16:07:40.002Z</time></trkpt><trkpt lat="45.59657250840659" lon="10.123007959500967"><ele>165.83333333333334</ele><time>2026-04-21T16:07:43.002Z</time></trkpt><trkpt lat="45.59658734980133" lon="10.12313009982907"><ele>166.0</ele><time>2026-04-21T16:07:46.002Z</time></trkpt><trkpt lat="45.59660114703559" lon="10.123249768975953"><ele>166.33333333333334</ele><time>2026-04-21T16:07:49.002Z</time></trkpt><trkpt lat="45.59658927592107" lon="10.12334560401074"><ele>166.66666666666669</ele><time>2026-04-21T16:07:51.002Z</time></trkpt><trkpt lat="45.596594507356905" lon="10.123460637878027"><ele>167.0</ele><time>2026-04-21T16:07:54.002Z</time></trkpt><trkpt lat="45.59657891031043" lon="10.123583233728125"><ele>167.33333333333334</ele><time>2026-04-21T16:07:57.002Z</time></trkpt><trkpt lat="45.59657344743678" lon="10.123710451028515"><ele>167.66666666666666</ele><time>2026-04-21T16:08:00.002Z</time></trkpt><trkpt lat="45.59655440502247" lon="10.123834209956406"><ele>168.0</ele><time>2026-04-21T16:08:03.002Z</time></trkpt><trkpt lat="45.59653777472608" lon="10.123933020433451"><ele>168.0</ele><time>2026-04-21T16:08:07.001Z</time></trkpt><trkpt lat="45.59655893351426" lon="10.124017924012765"><ele>168.0</ele><time>2026-04-21T16:08:10.002Z</time></trkpt><trkpt lat="45.596565966750624" lon="10.12411266039491"><ele>168.0</ele><time>2026-04-21T16:08:13.002Z</time></trkpt><trkpt lat="45.5965652562739" lon="10.124208960848968"><ele>168.0</ele><time>2026-04-21T16:08:18.002Z</time></trkpt><trkpt lat="45.596548599179364" lon="10.12435798419822"><ele>168.0</ele><time>2026-04-21T16:08:21.002Z</time></trkpt><trkpt lat="45.59657250781746" lon="10.12445356321271"><ele>168.0</ele><time>2026-04-21T16:08:23.002Z</time></trkpt><trkpt lat="45.59659063689298" lon="10.124546912155411"><ele>168.0</ele><time>2026-04-21T16:08:25.002Z</time></trkpt><trkpt lat="45.59663198602232" lon="10.12464437086802"><ele>168.0</ele><time>2026-04-21T16:08:27.002Z</time></trkpt><trkpt lat="45.59665000804581" lon="10.12473700067452"><ele>168.0</ele><time>2026-04-21T16:08:29.002Z</time></trkpt><trkpt lat="45.59665165696514" lon="10.124829681552812"><ele>168.0</ele><time>2026-04-21T16:08:31.002Z</time></trkpt><trkpt lat="45.59661160488586" lon="10.124919801586428"><ele>168.0</ele><time>2026-04-21T16:08:34.002Z</time></trkpt><trkpt lat="45.5965742387413" lon="10.125028477308165"><ele>168.0</ele><time>2026-04-21T16:08:37.002Z</time></trkpt><trkpt lat="45.596580950310134" lon="10.125123708518906"><ele>168.0</ele><time>2026-04-21T16:08:39.002Z</time></trkpt><trkpt lat="45.5966081175683" lon="10.125237342675335"><ele>168.0</ele><time>2026-04-21T16:08:42.002Z</time></trkpt><trkpt lat="45.59659688847196" lon="10.125354770437026"><ele>168.0</ele><time>2026-04-21T16:08:45.002Z</time></trkpt><trkpt lat="45.59660139665504" lon="10.125464052100368"><ele>168.0</ele><time>2026-04-21T16:08:48.002Z</time></trkpt><trkpt lat="45.596577666216405" lon="10.12558314182124"><ele>168.0</ele><time>2026-04-21T16:08:51.002Z</time></trkpt><trkpt lat="45.59657895810192" lon="10.125710698777196"><ele>168.0</ele><time>2026-04-21T16:08:54.002Z</time></trkpt><trkpt lat="45.59655883270599" lon="10.125828382761645"><ele>168.0</ele><time>2026-04-21T16:08:57.002Z</time></trkpt><trkpt lat="45.59656168028366" lon="10.125953260730116"><ele>168.0</ele><time>2026-04-21T16:09:00.002Z</time></trkpt><trkpt lat="45.596558165742195" lon="10.12606820053555"><ele>168.0</ele><time>2026-04-21T16:09:03.002Z</time></trkpt><trkpt lat="45.59655714925475" lon="10.126201313215796"><ele>168.0</ele><time>2026-04-21T16:09:06.002Z</time></trkpt><trkpt lat="45.596543967612234" lon="10.126318325059275"><ele>168.0</ele><time>2026-04-21T16:09:09.002Z</time></trkpt><trkpt lat="45.59654927437249" lon="10.126435502812155"><ele>168.0</ele><time>2026-04-21T16:09:12.002Z</time></trkpt><trkpt lat="45.596537049435526" lon="10.12653429566111"><ele>168.0</ele><time>2026-04-21T16:09:15.002Z</time></trkpt><trkpt lat="45.596550949018095" lon="10.12662610484657"><ele>168.0</ele><time>2026-04-21T16:09:19.002Z</time></trkpt><trkpt lat="45.596594784913904" lon="10.126735270172471"><ele>167.5</ele><time>2026-04-21T16:09:23.002Z</time></trkpt><trkpt lat="45.59658180218288" lon="10.126853778133414"><ele>167.0</ele><time>2026-04-21T16:09:26.002Z</time></trkpt><trkpt lat="45.59657363109156" lon="10.126964631708717"><ele>166.5</ele><time>2026-04-21T16:09:29.002Z</time></trkpt><trkpt lat="45.59656834101724" lon="10.12707644828025"><ele>166.0</ele><time>2026-04-21T16:09:32.002Z</time></trkpt><trkpt lat="45.59655085359898" lon="10.127185628268274"><ele>165.5</ele><time>2026-04-21T16:09:35.002Z</time></trkpt><trkpt lat="45.596545730999786" lon="10.127308444563834"><ele>165.0</ele><time>2026-04-21T16:09:38.002Z</time></trkpt><trkpt lat="45.5965552559072" lon="10.127434724044019"><ele>164.66666666666666</ele><time>2026-04-21T16:09:41.002Z</time></trkpt><trkpt lat="45.596562692378534" lon="10.127560338906264"><ele>164.33333333333334</ele><time>2026-04-21T16:09:44.002Z</time></trkpt><trkpt lat="45.59656767538748" lon="10.12768686364255"><ele>164.0</ele><time>2026-04-21T16:09:47.002Z</time></trkpt><trkpt lat="45.596589881538115" lon="10.127815384316103"><ele>163.66666666666669</ele><time>2026-04-21T16:09:50.002Z</time></trkpt><trkpt lat="45.5966137141505" lon="10.127933390525673"><ele>163.33333333333334</ele><time>2026-04-21T16:09:53.002Z</time></trkpt><trkpt lat="45.59664750298384" lon="10.128032640245172"><ele>163.0</ele><time>2026-04-21T16:09:56.002Z</time></trkpt><trkpt lat="45.59665858670299" lon="10.128125374334966"><ele>162.66666666666669</ele><time>2026-04-21T16:09:58.002Z</time></trkpt><trkpt lat="45.596670643948336" lon="10.128235293735655"><ele>162.33333333333334</ele><time>2026-04-21T16:10:01.002Z</time></trkpt><trkpt lat="45.596686920609116" lon="10.128353029388386"><ele>162.0</ele><time>2026-04-21T16:10:04.002Z</time></trkpt><trkpt lat="45.59669637267661" lon="10.128477361872562"><ele>161.66666666666666</ele><time>2026-04-21T16:10:07.002Z</time></trkpt><trkpt lat="45.59671092412048" lon="10.128610200644449"><ele>161.33333333333331</ele><time>2026-04-21T16:10:10.002Z</time></trkpt><trkpt lat="45.59671608420464" lon="10.128735064403045"><ele>161.0</ele><time>2026-04-21T16:10:13.002Z</time></trkpt><trkpt lat="45.59673133852783" lon="10.128857257321432"><ele>161.0</ele><time>2026-04-21T16:10:16.002Z</time></trkpt><trkpt lat="45.59674965224638" lon="10.128974294324387"><ele>161.0</ele><time>2026-04-21T16:10:19.002Z</time></trkpt><trkpt lat="45.59677526577036" lon="10.12908879129624"><ele>161.0</ele><time>2026-04-21T16:10:22.002Z</time></trkpt><trkpt lat="45.596797733171925" lon="10.129206220167434"><ele>161.0</ele><time>2026-04-21T16:10:25.002Z</time></trkpt><trkpt lat="45.59681114999105" lon="10.129331368155986"><ele>161.0</ele><time>2026-04-21T16:10:28.002Z</time></trkpt><trkpt lat="45.59682887371321" lon="10.129450247298351"><ele>161.0</ele><time>2026-04-21T16:10:31.002Z</time></trkpt><trkpt lat="45.596831632184106" lon="10.129579749348615"><ele>161.33333333333331</ele><time>2026-04-21T16:10:34.002Z</time></trkpt><trkpt lat="45.596823967548076" lon="10.12969767043821"><ele>161.66666666666666</ele><time>2026-04-21T16:10:37.002Z</time></trkpt><trkpt lat="45.59682125360018" lon="10.129819092866203"><ele>162.0</ele><time>2026-04-21T16:10:40.002Z</time></trkpt><trkpt lat="45.59682189253974" lon="10.129935588686553"><ele>162.33333333333334</ele><time>2026-04-21T16:10:43.002Z</time></trkpt><trkpt lat="45.59681435579558" lon="10.130059900984365"><ele>162.66666666666669</ele><time>2026-04-21T16:10:46.002Z</time></trkpt><trkpt lat="45.596810247545974" lon="10.1301850335534"><ele>163.0</ele><time>2026-04-21T16:10:49.002Z</time></trkpt><trkpt lat="45.59680643277974" lon="10.130303663893523"><ele>163.0</ele><time>2026-04-21T16:10:52.002Z</time></trkpt><trkpt lat="45.59680066832539" lon="10.130427046673086"><ele>163.0</ele><time>2026-04-21T16:10:55.002Z</time></trkpt><trkpt lat="45.59679235471748" lon="10.13054615188967"><ele>163.0</ele><time>2026-04-21T16:10:58.002Z</time></trkpt><trkpt lat="45.59677879298869" lon="10.13063641839783"><ele>163.0</ele><time>2026-04-21T16:11:00.002Z</time></trkpt><trkpt lat="45.59678023833045" lon="10.130750242264392"><ele>163.0</ele><time>2026-04-21T16:11:03.002Z</time></trkpt><trkpt lat="45.596771748019286" lon="10.130863172124101"><ele>163.0</ele><time>2026-04-21T16:11:06.002Z</time></trkpt><trkpt lat="45.59678030523674" lon="10.130976634275623"><ele>163.16666666666669</ele><time>2026-04-21T16:11:09.002Z</time></trkpt><trkpt lat="45.59677718788146" lon="10.131091324315266"><ele>163.33333333333334</ele><time>2026-04-21T16:11:12.002Z</time></trkpt><trkpt lat="45.59676651705697" lon="10.131200012872368"><ele>163.5</ele><time>2026-04-21T16:11:15.002Z</time></trkpt><trkpt lat="45.59674659118872" lon="10.131319860146895"><ele>163.66666666666666</ele><time>2026-04-21T16:11:18.002Z</time></trkpt><trkpt lat="45.59672172110142" lon="10.13143560864558"><ele>163.83333333333331</ele><time>2026-04-21T16:11:21.002Z</time></trkpt><trkpt lat="45.5966926896642" lon="10.131545922510952"><ele>164.0</ele><time>2026-04-21T16:11:24.002Z</time></trkpt><trkpt lat="45.59665857252734" lon="10.131665492843519"><ele>164.5</ele><time>2026-04-21T16:11:27.002Z</time></trkpt><trkpt lat="45.59662345714111" lon="10.131783403843393"><ele>165.0</ele><time>2026-04-21T16:11:30.002Z</time></trkpt><trkpt lat="45.59657289350496" lon="10.131893079377672"><ele>165.5</ele><time>2026-04-21T16:11:33.002Z</time></trkpt><trkpt lat="45.59652831561872" lon="10.132009738155743"><ele>166.0</ele><time>2026-04-21T16:11:36.002Z</time></trkpt><trkpt lat="45.596492099194435" lon="10.132112499336074"><ele>166.5</ele><time>2026-04-21T16:11:39.002Z</time></trkpt><trkpt lat="45.59642521929068" lon="10.13219210825049"><ele>167.0</ele><time>2026-04-21T16:11:42.002Z</time></trkpt><trkpt lat="45.59635989294427" lon="10.132194131697146"><ele>167.0</ele><time>2026-04-21T16:11:44.002Z</time></trkpt><trkpt lat="45.59628698572631" lon="10.132162019661864"><ele>167.0</ele><time>2026-04-21T16:11:47.002Z</time></trkpt><trkpt lat="45.596216655622406" lon="10.132112633444192"><ele>167.0</ele><time>2026-04-21T16:11:50.002Z</time></trkpt><trkpt lat="45.59616709819376" lon="10.132053327806528"><ele>167.0</ele><time>2026-04-21T16:11:52.002Z</time></trkpt><trkpt lat="45.596096347781376" lon="10.132019402373377"><ele>167.0</ele><time>2026-04-21T16:11:55.002Z</time></trkpt><trkpt lat="45.59602403674085" lon="10.131935633286986"><ele>167.0</ele><time>2026-04-21T16:11:58.002Z</time></trkpt><trkpt lat="45.59594384980057" lon="10.131883734797567"><ele>166.66666666666666</ele><time>2026-04-21T16:12:01.002Z</time></trkpt><trkpt lat="45.59586846280678" lon="10.13181001068984"><ele>166.33333333333331</ele><time>2026-04-21T16:12:04.002Z</time></trkpt><trkpt lat="45.595798793517" lon="10.131721720376083"><ele>166.0</ele><time>2026-04-21T16:12:07.002Z</time></trkpt><trkpt lat="45.595734086128786" lon="10.131639344475865"><ele>165.66666666666666</ele><time>2026-04-21T16:12:10.002Z</time></trkpt><trkpt lat="45.59566105813828" lon="10.131641511491221"><ele>165.33333333333334</ele><time>2026-04-21T16:12:13.002Z</time></trkpt><trkpt lat="45.59559832872928" lon="10.131677008269634"><ele>165.0</ele><time>2026-04-21T16:12:16.002Z</time></trkpt><trkpt lat="45.59552519309885" lon="10.131696279616246"><ele>165.0</ele><time>2026-04-21T16:12:19.002Z</time></trkpt><trkpt lat="45.595440436590444" lon="10.131680047405167"><ele>165.0</ele><time>2026-04-21T16:12:22.002Z</time></trkpt><trkpt lat="45.59535280030572" lon="10.131652104894604"><ele>165.0</ele><time>2026-04-21T16:12:25.003Z</time></trkpt><trkpt lat="45.59526314842159" lon="10.13164953752119"><ele>165.0</ele><time>2026-04-21T16:12:28.002Z</time></trkpt><trkpt lat="45.595169294951425" lon="10.131631098991035"><ele>165.0</ele><time>2026-04-21T16:12:31.002Z</time></trkpt><trkpt lat="45.59507941733277" lon="10.131647008914305"><ele>164.16666666666666</ele><time>2026-04-21T16:12:34.002Z</time></trkpt><trkpt lat="45.5950248600446" lon="10.13171019194376"><ele>163.33333333333334</ele><time>2026-04-21T16:12:37.002Z</time></trkpt><trkpt lat="45.595013434999515" lon="10.131825367551672"><ele>162.5</ele><time>2026-04-21T16:12:40.002Z</time></trkpt><trkpt lat="45.595002623873775" lon="10.131924470178387"><ele>161.66666666666669</ele><time>2026-04-21T16:12:43.002Z</time></trkpt><trkpt lat="45.59498908572611" lon="10.132026226283397"><ele>160.83333333333334</ele><time>2026-04-21T16:12:46.002Z</time></trkpt><trkpt lat="45.59495320972255" lon="10.132134567809366"><ele>160.0</ele><time>2026-04-21T16:12:49.002Z</time></trkpt><trkpt lat="45.594916204259825" lon="10.132232627212664"><ele>160.0</ele><time>2026-04-21T16:12:52.002Z</time></trkpt><trkpt lat="45.59490122162543" lon="10.132322019748049"><ele>160.0</ele><time>2026-04-21T16:12:54.002Z</time></trkpt><trkpt lat="45.59488843086644" lon="10.132426058334179"><ele>160.0</ele><time>2026-04-21T16:12:57.002Z</time></trkpt><trkpt lat="45.59488090979109" lon="10.13254409212927"><ele>160.0</ele><time>2026-04-21T16:13:00.002Z</time></trkpt><trkpt lat="45.59486517552839" lon="10.132659981314884"><ele>160.0</ele><time>2026-04-21T16:13:03.002Z</time></trkpt><trkpt lat="45.594853529175445" lon="10.13276675247223"><ele>160.0</ele><time>2026-04-21T16:13:06.002Z</time></trkpt><trkpt lat="45.59484483974065" lon="10.132872250521919"><ele>160.16666666666669</ele><time>2026-04-21T16:13:09.002Z</time></trkpt><trkpt lat="45.59481341982729" lon="10.13295259812026"><ele>160.33333333333334</ele><time>2026-04-21T16:13:11.002Z</time></trkpt><trkpt lat="45.59478694292458" lon="10.133073964087762"><ele>160.5</ele><time>2026-04-21T16:13:14.002Z</time></trkpt><trkpt lat="45.59477315990903" lon="10.13319389529207"><ele>160.66666666666666</ele><time>2026-04-21T16:13:17.002Z</time></trkpt><trkpt lat="45.59474577075432" lon="10.133310248087996"><ele>160.83333333333331</ele><time>2026-04-21T16:13:20.002Z</time></trkpt><trkpt lat="45.594719302194754" lon="10.133419205584007"><ele>161.0</ele><time>2026-04-21T16:13:23.002Z</time></trkpt><trkpt lat="45.59470727829053" lon="10.1335222874438"><ele>161.5</ele><time>2026-04-21T16:13:26.002Z</time></trkpt><trkpt lat="45.59469065961096" lon="10.133634893490829"><ele>162.0</ele><time>2026-04-21T16:13:29.002Z</time></trkpt><trkpt lat="45.59466686638491" lon="10.133746616329606"><ele>162.5</ele><time>2026-04-21T16:13:32.002Z</time></trkpt><trkpt lat="45.59465724163418" lon="10.133859367091475"><ele>163.0</ele><time>2026-04-21T16:13:35.002Z</time></trkpt><trkpt lat="45.59463250898914" lon="10.133974257427873"><ele>163.5</ele><time>2026-04-21T16:13:38.002Z</time></trkpt><trkpt lat="45.594611215999244" lon="10.134062864846806"><ele>164.0</ele><time>2026-04-21T16:13:40.002Z</time></trkpt><trkpt lat="45.5945816118086" lon="10.134173038545782"><ele>163.99999999999997</ele><time>2026-04-21T16:13:43.002Z</time></trkpt><trkpt lat="45.59456799142295" lon="10.13428484431019"><ele>164.0</ele><time>2026-04-21T16:13:46.002Z</time></trkpt><trkpt lat="45.59455182098468" lon="10.134381241908207"><ele>164.0</ele><time>2026-04-21T16:13:49.002Z</time></trkpt><trkpt lat="45.59453156926902" lon="10.134484773084765"><ele>164.0</ele><time>2026-04-21T16:13:52.002Z</time></trkpt><trkpt lat="45.594512629896364" lon="10.134588550661123"><ele>164.0</ele><time>2026-04-21T16:13:56.002Z</time></trkpt><trkpt lat="45.59446091896203" lon="10.134647276248142"><ele>163.99999999999997</ele><time>2026-04-21T16:14:01.002Z</time></trkpt><trkpt lat="45.59450117370322" lon="10.134575324661457"><ele>164.0</ele><time>2026-04-21T16:14:18.002Z</time></trkpt><trkpt lat="45.59457177585851" lon="10.13460527028937"><ele>164.0</ele><time>2026-04-21T16:14:35.003Z</time></trkpt><trkpt lat="45.59460211408309" lon="10.13469373526405"><ele>164.0</ele><time>2026-04-21T16:14:41.003Z</time></trkpt><trkpt lat="45.59468350568735" lon="10.134719068801422"><ele>164.0</ele><time>2026-04-21T16:15:26.148Z</time></trkpt><trkpt lat="45.5946675770803" lon="10.134590684060282"><ele>164.0</ele><time>2026-04-21T16:17:22.145Z</time></trkpt></trkseg></trk></gpx>